TimeEST,TemperatureF,Dew PointF,Humidity,Sea Level PressureIn,VisibilityMPH,Wind Direction,Wind SpeedMPH,Gust SpeedMPH,PrecipitationIn,Events,Conditions,WindDirDegrees,DateUTC
12:36 AM,48.2,44.6,87,29.86,10.0,NW,13.8,19.6,N/A,,Overcast,310,2012-12-11 05:36:00
12:53 AM,46.9,43.0,86,29.86,10.0,NW,17.3,23.0,N/A,,Overcast,320,2012-12-11 05:53:00
1:16 AM,46.4,42.8,87,29.86,10.0,NW,16.1,21.9,N/A,,Overcast,310,2012-12-11 06:16:00
1:24 AM,46.4,42.8,87,29.87,10.0,WNW,13.8,21.9,N/A,,Overcast,300,2012-12-11 06:24:00
1:41 AM,44.6,39.2,81,29.87,10.0,NW,16.1,23.0,N/A,,Mostly Cloudy,310,2012-12-11 06:41:00
1:53 AM,44.1,39.0,82,29.87,10.0,NW,17.3,21.9,N/A,,Partly Cloudy,320,2012-12-11 06:53:00
2:53 AM,43.0,37.0,80,29.89,10.0,WNW,10.4,-,N/A,,Clear,300,2012-12-11 07:53:00
3:53 AM,42.1,37.0,82,29.90,10.0,WNW,8.1,-,N/A,,Partly Cloudy,290,2012-12-11 08:53:00
4:53 AM,39.0,35.1,86,29.92,10.0,WNW,9.2,-,N/A,,Clear,300,2012-12-11 09:53:00
5:53 AM,37.9,34.0,86,29.94,10.0,NW,8.1,-,N/A,,Clear,310,2012-12-11 10:53:00
6:53 AM,36.0,33.1,89,29.97,9.0,NW,11.5,-,N/A,,Clear,310,2012-12-11 11:53:00
7:49 AM,35.6,32.0,87,29.99,7.0,WNW,11.5,-,N/A,,Mostly Cloudy,300,2012-12-11 12:49:00
7:53 AM,36.0,32.0,86,30.01,7.0,WNW,9.2,18.4,N/A,,Mostly Cloudy,290,2012-12-11 12:53:00
8:53 AM,37.0,33.1,86,30.03,7.0,NW,9.2,-,N/A,,Overcast,320,2012-12-11 13:53:00
9:53 AM,39.0,33.1,79,30.06,7.0,NW,11.5,-,N/A,,Scattered Clouds,310,2012-12-11 14:53:00
10:11 AM,39.2,33.8,81,30.03,7.0,NW,5.8,-,N/A,,Mostly Cloudy,310,2012-12-11 15:11:00
10:41 AM,41.0,33.8,76,30.03,8.0,NW,11.5,-,N/A,,Partly Cloudy,310,2012-12-11 15:41:00
10:53 AM,41.0,33.1,73,30.05,8.0,WNW,9.2,-,N/A,,Partly Cloudy,300,2012-12-11 15:53:00
11:53 AM,41.0,33.1,73,30.05,9.0,WNW,11.5,-,N/A,,Clear,300,2012-12-11 16:53:00
12:53 PM,42.1,33.1,70,30.05,9.0,WNW,8.1,17.3,N/A,,Clear,300,2012-12-11 17:53:00
1:53 PM,42.1,32.0,67,30.06,9.0,NW,12.7,-,N/A,,Clear,310,2012-12-11 18:53:00
2:53 PM,42.1,33.1,70,30.06,9.0,NW,10.4,-,N/A,,Clear,310,2012-12-11 19:53:00
3:53 PM,42.1,32.0,67,30.07,9.0,NW,9.2,-,N/A,,Clear,320,2012-12-11 20:53:00
4:53 PM,41.0,32.0,70,30.09,8.0,WNW,10.4,-,N/A,,Clear,300,2012-12-11 21:53:00
5:53 PM,39.0,32.0,76,30.10,9.0,NW,11.5,-,N/A,,Clear,320,2012-12-11 22:53:00
6:53 PM,37.9,32.0,79,30.11,8.0,WNW,8.1,-,N/A,,Clear,300,2012-12-11 23:53:00
7:53 PM,37.0,30.9,79,30.13,9.0,WNW,5.8,-,N/A,,Clear,300,2012-12-12 00:53:00
8:53 PM,37.0,30.9,79,30.13,9.0,WNW,4.6,-,N/A,,Clear,300,2012-12-12 01:53:00
9:53 PM,36.0,30.9,82,30.14,9.0,West,4.6,-,N/A,,Clear,280,2012-12-12 02:53:00
10:53 PM,36.0,30.9,82,30.16,9.0,WNW,4.6,-,N/A,,Clear,300,2012-12-12 03:53:00
11:53 PM,36.0,30.9,82,30.17,9.0,NW,4.6,-,N/A,,Clear,320,2012-12-12 04:53:00